Time;durP1;ratioP1;P1;durP2;ratioP2;P2;SDS_P1;SDS_P2;PMS_P1;PMS_P2;Temp;Humidity;BMP_temperature;BMP_pressure;BME280_temperature;BME280_humidity;BME280_pressure;Samples;Min_cycle;Max_cycle;Signal;HPM_P1;HPM_P2
2022/06/24 00:00:01;;;;;;;;;;;29.40;47.80;;;;;;5015914;28;20360;-76
2022/06/24 00:02:26;;;;;;;;;;;29.50;47.80;;;;;;5016446;28;19909;-77
2022/06/24 00:04:53;;;;;;;;;;;29.50;47.80;;;;;;5032319;28;19970;-77
2022/06/24 00:07:19;;;;;;;;;;;29.40;47.70;;;;;;5032515;28;20383;-76
2022/06/24 00:09:44;;;;;;;;;;;29.40;47.70;;;;;;5031976;28;19909;-77
2022/06/24 00:12:11;;;;;;;;;;;29.40;47.80;;;;;;5032357;28;19909;-76
2022/06/24 00:14:37;;;;;;;;;;;29.40;47.80;;;;;;5032247;28;20000;-76
2022/06/24 00:17:03;;;;;;;;;;;29.40;47.80;;;;;;5032147;28;19959;-76
2022/06/24 00:19:29;;;;;;;;;;;29.50;47.90;;;;;;5032084;28;19920;-77
2022/06/24 00:22:05;;;;;;;;;;;29.40;47.80;;;;;;5032358;28;20361;-76
2022/06/24 00:24:31;;;;;;;;;;;29.40;47.80;;;;;;5032175;28;19917;-77
2022/06/24 00:26:57;;;;;;;;;;;29.40;47.80;;;;;;5033345;28;19916;-76
2022/06/24 00:29:24;;;;;;;;;;;29.40;47.80;;;;;;5033324;28;19963;-76
2022/06/24 00:31:59;;;;;;;;;;;29.40;47.80;;;;;;5033493;28;20392;-76
2022/06/24 00:34:25;;;;;;;;;;;29.40;47.80;;;;;;5015735;28;20407;-76
2022/06/24 00:36:50;;;;;;;;;;;29.40;47.80;;;;;;5032195;28;19920;-76
2022/06/24 00:39:16;;;;;;;;;;;29.40;47.80;;;;;;5031454;28;19909;-76
2022/06/24 00:41:41;;;;;;;;;;;29.40;47.80;;;;;;5033490;28;19996;-76
2022/06/24 00:44:07;;;;;;;;;;;29.40;47.80;;;;;;5031958;28;19920;-77
2022/06/24 00:46:35;;;;;;;;;;;29.30;47.80;;;;;;5018943;28;19909;-76
2022/06/24 00:49:00;;;;;;;;;;;29.30;47.80;;;;;;5019518;28;20007;-76
2022/06/24 00:51:32;;;;;;;;;;;29.30;47.80;;;;;;5035815;28;20067;-77
2022/06/24 00:53:58;;;;;;;;;;;29.30;47.90;;;;;;5035794;28;20293;-76
2022/06/24 00:56:26;;;;;;;;;;;29.30;47.90;;;;;;5035671;28;19909;-76
2022/06/24 00:58:56;;;;;;;;;;;29.30;48.00;;;;;;5018962;28;19955;-76
2022/06/24 01:01:31;;;;;;;;;;;29.20;47.90;;;;;;5019027;28;20003;-76
2022/06/24 01:03:57;;;;;;;;;;;29.20;48.00;;;;;;5035312;28;19924;-76
2022/06/24 01:06:23;;;;;;;;;;;29.20;48.00;;;;;;5019025;28;19909;-77
2022/06/24 01:08:48;;;;;;;;;;;29.20;48.00;;;;;;5018282;28;20092;-76
2022/06/24 01:11:21;;;;;;;;;;;29.20;48.10;;;;;;5035169;28;19909;-76
2022/06/24 01:13:47;;;;;;;;;;;29.20;48.10;;;;;;5018815;28;19910;-76
2022/06/24 01:16:12;;;;;;;;;;;29.20;48.10;;;;;;5018762;28;20427;-76
2022/06/24 01:18:38;;;;;;;;;;;29.20;48.10;;;;;;5035315;28;19909;-76
2022/06/24 01:21:03;;;;;;;;;;;29.10;48.10;;;;;;5035433;28;20020;-76
2022/06/24 01:23:28;;;;;;;;;;;29.10;48.10;;;;;;5036340;28;20023;-76
2022/06/24 01:25:54;;;;;;;;;;;29.20;48.10;;;;;;5035281;28;19916;-77
2022/06/24 01:28:19;;;;;;;;;;;29.10;48.10;;;;;;5036341;28;19909;-76
2022/06/24 01:30:45;;;;;;;;;;;29.10;48.10;;;;;;5018516;28;20352;-76
2022/06/24 01:33:10;;;;;;;;;;;29.10;48.10;;;;;;5034915;28;20296;-76
2022/06/24 01:35:36;;;;;;;;;;;29.10;48.10;;;;;;5018486;28;19931;-77
2022/06/24 01:38:01;;;;;;;;;;;29.10;48.10;;;;;;5034256;28;19909;-76
2022/06/24 01:40:27;;;;;;;;;;;29.20;48.20;;;;;;5018280;28;20414;-77
2022/06/24 01:42:52;;;;;;;;;;;29.10;48.10;;;;;;5034886;28;19909;-76
2022/06/24 01:45:17;;;;;;;;;;;29.10;48.10;;;;;;5036277;28;19909;-76
2022/06/24 01:47:43;;;;;;;;;;;29.00;48.10;;;;;;5035021;28;20016;-76
2022/06/24 01:50:08;;;;;;;;;;;29.10;48.10;;;;;;5018403;28;19913;-76
2022/06/24 01:52:34;;;;;;;;;;;29.10;48.00;;;;;;5035034;28;19916;-76
2022/06/24 01:54:59;;;;;;;;;;;29.10;48.10;;;;;;5034806;28;19909;-76
2022/06/24 01:57:25;;;;;;;;;;;29.10;47.90;;;;;;5034499;28;19909;-77
2022/06/24 01:59:51;;;;;;;;;;;29.10;48.10;;;;;;5018047;28;19917;-77
2022/06/24 02:02:16;;;;;;;;;;;29.10;48.10;;;;;;5034650;28;19910;-77
2022/06/24 02:04:42;;;;;;;;;;;29.00;48.10;;;;;;5034530;28;19965;-76
2022/06/24 02:07:07;;;;;;;;;;;29.00;48.10;;;;;;5034470;28;19916;-76
2022/06/24 02:13:26;;;;;;;;;;;29.00;48.10;;;;;;5033995;28;20008;-76
2022/06/24 02:15:03;;;;;;;;;;;29.00;48.10;;;;;;5035286;28;20280;-77
2022/06/24 02:17:29;;;;;;;;;;;29.00;48.00;;;;;;5017854;28;20325;-76
2022/06/24 02:19:54;;;;;;;;;;;29.00;48.00;;;;;;5034130;28;20018;-76
2022/06/24 02:22:20;;;;;;;;;;;29.00;48.00;;;;;;5035418;28;19909;-77
2022/06/24 02:24:45;;;;;;;;;;;29.00;48.00;;;;;;5035396;28;19924;-76
2022/06/24 02:27:11;;;;;;;;;;;28.90;48.00;;;;;;5035236;28;19916;-77
2022/06/24 02:29:36;;;;;;;;;;;28.90;48.10;;;;;;5033819;28;19908;-77
2022/06/24 02:32:01;;;;;;;;;;;28.90;48.00;;;;;;5033594;28;20357;-75
2022/06/24 02:34:27;;;;;;;;;;;29.00;48.10;;;;;;5035255;28;19910;-77
2022/06/24 02:36:52;;;;;;;;;;;29.00;48.00;;;;;;5033645;28;20270;-76
2022/06/24 02:39:18;;;;;;;;;;;29.00;48.00;;;;;;5034519;28;19963;-76
2022/06/24 02:41:43;;;;;;;;;;;29.00;47.90;;;;;;5033761;28;20004;-76
2022/06/24 02:44:09;;;;;;;;;;;29.00;47.90;;;;;;5033487;28;19917;-76
2022/06/24 02:46:34;;;;;;;;;;;29.00;47.90;;;;;;5016883;28;20376;-76
2022/06/24 02:49:00;;;;;;;;;;;28.90;47.90;;;;;;5034754;28;19963;-75
2022/06/24 02:51:25;;;;;;;;;;;28.90;47.90;;;;;;5034468;28;19909;-76
2022/06/24 02:53:51;;;;;;;;;;;28.90;47.90;;;;;;5016923;28;19909;-76
2022/06/24 02:56:16;;;;;;;;;;;28.90;47.80;;;;;;5033221;28;19916;-76
2022/06/24 02:58:42;;;;;;;;;;;29.00;47.90;;;;;;5034415;28;19909;-76
2022/06/24 03:01:07;;;;;;;;;;;28.90;47.70;;;;;;5016726;28;19909;-77
2022/06/24 03:03:33;;;;;;;;;;;28.90;47.60;;;;;;5033012;28;19917;-76
2022/06/24 03:05:58;;;;;;;;;;;28.90;47.70;;;;;;5033316;28;20422;-76
2022/06/24 03:08:24;;;;;;;;;;;28.90;47.70;;;;;;5015427;28;20314;-77
2022/06/24 03:10:50;;;;;;;;;;;28.90;47.70;;;;;;5033101;28;19916;-77
2022/06/24 03:13:16;;;;;;;;;;;28.90;47.70;;;;;;5016624;28;19916;-76
2022/06/24 03:15:43;;;;;;;;;;;28.90;47.80;;;;;;5033062;28;20280;-76
2022/06/24 03:18:09;;;;;;;;;;;28.90;47.80;;;;;;5034129;28;20420;-76
2022/06/24 03:20:34;;;;;;;;;;;28.90;47.70;;;;;;5032977;28;19952;-76
2022/06/24 03:23:00;;;;;;;;;;;28.90;47.70;;;;;;5032704;28;19971;-76
2022/06/24 03:25:25;;;;;;;;;;;28.90;47.80;;;;;;5032547;28;19909;-76
2022/06/24 03:27:51;;;;;;;;;;;28.90;47.70;;;;;;5033966;28;19909;-76
2022/06/24 03:30:16;;;;;;;;;;;28.90;47.70;;;;;;5016228;28;20281;-77
2022/06/24 03:32:41;;;;;;;;;;;28.90;47.70;;;;;;5034049;28;19909;-75
2022/06/24 03:35:07;;;;;;;;;;;28.90;47.70;;;;;;5016487;28;20000;-76
2022/06/24 03:37:33;;;;;;;;;;;28.90;47.70;;;;;;5032599;28;19916;-76
2022/06/24 03:39:58;;;;;;;;;;;28.90;47.70;;;;;;5015857;28;19913;-76
2022/06/24 03:42:24;;;;;;;;;;;28.80;47.70;;;;;;5032511;28;19909;-77
2022/06/24 03:44:49;;;;;;;;;;;28.80;47.70;;;;;;5032504;28;20435;-76
2022/06/24 03:47:15;;;;;;;;;;;28.80;47.60;;;;;;5016111;28;20338;-77
2022/06/24 03:49:40;;;;;;;;;;;28.80;47.70;;;;;;5032428;28;19948;-77
2022/06/24 03:52:06;;;;;;;;;;;28.80;47.70;;;;;;5016108;28;19916;-76
2022/06/24 03:54:31;;;;;;;;;;;28.80;47.80;;;;;;5032514;28;19909;-76
2022/06/24 03:56:57;;;;;;;;;;;28.70;47.70;;;;;;5032328;28;20380;-77
2022/06/24 03:59:22;;;;;;;;;;;28.70;47.70;;;;;;5015678;28;20315;-76
2022/06/24 04:01:48;;;;;;;;;;;28.70;47.70;;;;;;5033644;28;19932;-77
2022/06/24 04:04:13;;;;;;;;;;;28.70;47.70;;;;;;5032035;28;19924;-76
2022/06/24 04:06:39;;;;;;;;;;;28.70;47.70;;;;;;5033661;28;19959;-77
2022/06/24 04:09:04;;;;;;;;;;;28.70;47.60;;;;;;5031764;28;19924;-76
2022/06/24 04:11:29;;;;;;;;;;;28.70;47.70;;;;;;5032552;28;20288;-77
2022/06/24 04:13:55;;;;;;;;;;;28.70;47.70;;;;;;5033508;28;19947;-77
2022/06/24 04:16:20;;;;;;;;;;;28.70;47.60;;;;;;5033286;28;20347;-77
2022/06/24 04:18:47;;;;;;;;;;;28.70;47.60;;;;;;5016919;28;19933;-76
2022/06/24 04:21:15;;;;;;;;;;;28.70;47.60;;;;;;5036688;28;19913;-76
2022/06/24 04:23:41;;;;;;;;;;;28.60;47.70;;;;;;5036226;28;19917;-76
2022/06/24 04:26:07;;;;;;;;;;;28.60;47.70;;;;;;5035968;28;19916;-76
2022/06/24 04:28:32;;;;;;;;;;;28.60;47.70;;;;;;5036064;28;20288;-76
2022/06/24 04:30:57;;;;;;;;;;;28.60;47.70;;;;;;5036112;28;19916;-76
2022/06/24 04:33:23;;;;;;;;;;;28.60;47.70;;;;;;5035945;28;19916;-77
2022/06/24 04:35:48;;;;;;;;;;;28.60;47.70;;;;;;5019360;28;19920;-76
2022/06/24 04:38:14;;;;;;;;;;;28.50;47.80;;;;;;5036692;28;20349;-77
2022/06/24 04:40:39;;;;;;;;;;;28.50;47.70;;;;;;5036140;28;20289;-76
2022/06/24 04:43:05;;;;;;;;;;;28.60;47.70;;;;;;5035951;28;19963;-75
2022/06/24 04:45:31;;;;;;;;;;;28.50;47.70;;;;;;5035880;28;19932;-77
2022/06/24 04:47:56;;;;;;;;;;;28.50;47.70;;;;;;5035984;28;19909;-77
2022/06/24 04:50:22;;;;;;;;;;;28.50;47.60;;;;;;5036029;28;19971;-76
2022/06/24 04:52:47;;;;;;;;;;;28.60;47.60;;;;;;5019129;28;20071;-76
2022/06/24 04:55:12;;;;;;;;;;;28.60;47.50;;;;;;5035741;28;19909;-76
2022/06/24 04:57:40;;;;;;;;;;;28.60;47.70;;;;;;5036109;28;20217;-76
2022/06/24 05:00:06;;;;;;;;;;;28.60;47.70;;;;;;5035444;28;19999;-76
2022/06/24 05:02:31;;;;;;;;;;;28.50;47.60;;;;;;5035364;28;19909;-76
2022/06/24 05:04:57;;;;;;;;;;;28.50;47.70;;;;;;5051953;28;20315;-76
2022/06/24 05:07:22;;;;;;;;;;;28.50;47.50;;;;;;5038807;28;19913;-75
2022/06/24 05:09:47;;;;;;;;;;;28.50;47.60;;;;;;5038295;28;19915;-76
2022/06/24 05:12:13;;;;;;;;;;;28.60;47.70;;;;;;5038593;28;20000;-76
2022/06/24 05:14:38;;;;;;;;;;;28.60;48.20;;;;;;5022023;28;19913;-76
2022/06/24 05:17:04;;;;;;;;;;;28.60;47.50;;;;;;5038487;28;19909;-77
2022/06/24 05:19:29;;;;;;;;;;;28.50;47.60;;;;;;5056240;28;20376;-77
2022/06/24 05:21:55;;;;;;;;;;;28.50;47.50;;;;;;5021753;28;19908;-75
2022/06/24 05:24:20;;;;;;;;;;;28.50;47.50;;;;;;5038227;28;19913;-77
2022/06/24 05:26:46;;;;;;;;;;;28.50;47.50;;;;;;5038494;28;19909;-76
2022/06/24 05:29:11;;;;;;;;;;;28.50;47.50;;;;;;5037990;28;19932;-75
2022/06/24 05:31:37;;;;;;;;;;;28.60;47.40;;;;;;5055458;28;19913;-76
2022/06/24 05:34:03;;;;;;;;;;;28.50;47.50;;;;;;5038167;28;20384;-76
2022/06/24 05:36:28;;;;;;;;;;;28.50;47.50;;;;;;5038200;28;20339;-76
2022/06/24 05:38:54;;;;;;;;;;;28.50;47.50;;;;;;5021285;28;19908;-76
2022/06/24 05:41:19;;;;;;;;;;;28.50;47.30;;;;;;5021495;28;19917;-76
2022/06/24 05:43:45;;;;;;;;;;;28.50;47.40;;;;;;5055839;28;20016;-77
2022/06/24 05:46:10;;;;;;;;;;;28.50;47.50;;;;;;5055915;28;19916;-76
2022/06/24 05:48:36;;;;;;;;;;;28.50;47.50;;;;;;5021568;28;20336;-75
2022/06/24 05:51:11;;;;;;;;;;;28.50;47.40;;;;;;5038487;28;19963;-77
2022/06/24 05:56:20;;;;;;;;;;;28.50;47.50;;;;;;5041130;28;19920;-77
2022/06/24 05:58:46;;;;;;;;;;;28.50;47.40;;;;;;5038070;28;19909;-76
2022/06/24 06:01:11;;;;;;;;;;;28.50;47.40;;;;;;5037954;28;19909;-77
2022/06/24 06:03:37;;;;;;;;;;;28.50;47.20;;;;;;5037471;28;19925;-77
2022/06/24 06:06:03;;;;;;;;;;;28.60;47.40;;;;;;5021279;28;19909;-77
2022/06/24 06:08:28;;;;;;;;;;;28.60;47.40;;;;;;5020854;28;19974;-76
2022/06/24 06:10:53;;;;;;;;;;;28.60;47.30;;;;;;5037800;28;19916;-77
2022/06/24 06:13:19;;;;;;;;;;;28.50;47.40;;;;;;5037652;28;19913;-76
2022/06/24 06:15:44;;;;;;;;;;;28.50;47.40;;;;;;5055689;28;19959;-77
2022/06/24 06:18:10;;;;;;;;;;;28.50;48.10;;;;;;5021157;28;19913;-76
2022/06/24 06:20:35;;;;;;;;;;;28.50;47.60;;;;;;5055355;28;19909;-76
2022/06/24 06:23:01;;;;;;;;;;;28.50;47.40;;;;;;5055219;28;19909;-76
2022/06/24 06:25:26;;;;;;;;;;;28.50;47.50;;;;;;5037388;28;20330;-76
2022/06/24 06:27:52;;;;;;;;;;;28.60;47.60;;;;;;5037254;28;19947;-77
2022/06/24 06:30:17;;;;;;;;;;;28.50;47.50;;;;;;5037223;28;20315;-76
2022/06/24 06:32:43;;;;;;;;;;;28.50;48.00;;;;;;5036977;28;19908;-76
2022/06/24 06:35:08;;;;;;;;;;;28.50;47.40;;;;;;5037105;28;19916;-76
2022/06/24 06:37:34;;;;;;;;;;;28.60;47.40;;;;;;5020679;28;20383;-76
2022/06/24 06:39:59;;;;;;;;;;;28.60;47.30;;;;;;5036599;28;19913;-76
2022/06/24 06:42:25;;;;;;;;;;;28.60;47.30;;;;;;5035941;28;19909;-76
2022/06/24 06:44:50;;;;;;;;;;;28.60;47.20;;;;;;5036991;28;19913;-75
2022/06/24 06:47:16;;;;;;;;;;;28.60;47.20;;;;;;5020471;28;19908;-76
2022/06/24 06:49:41;;;;;;;;;;;28.70;47.20;;;;;;5054635;28;19923;-77
2022/06/24 06:52:07;;;;;;;;;;;28.60;47.10;;;;;;5020263;28;20380;-75
2022/06/24 06:54:32;;;;;;;;;;;28.60;47.20;;;;;;5054549;28;20381;-76
2022/06/24 06:56:58;;;;;;;;;;;28.70;47.30;;;;;;5036942;28;20070;-76
2022/06/24 06:59:23;;;;;;;;;;;28.60;47.10;;;;;;5036634;28;19916;-77
2022/06/24 07:01:49;;;;;;;;;;;28.60;47.00;;;;;;5036705;28;20497;-76
2022/06/24 07:04:14;;;;;;;;;;;28.60;47.00;;;;;;5036357;28;19921;-76
2022/06/24 07:06:40;;;;;;;;;;;28.70;47.30;;;;;;5036820;28;19999;-77
2022/06/24 07:09:05;;;;;;;;;;;28.60;47.00;;;;;;5036068;28;20378;-76
2022/06/24 07:11:31;;;;;;;;;;;28.70;46.70;;;;;;5054382;28;19979;-76
2022/06/24 07:13:56;;;;;;;;;;;28.70;47.00;;;;;;5036741;28;19916;-76
2022/06/24 07:16:22;;;;;;;;;;;28.70;46.80;;;;;;5019877;28;19908;-76
2022/06/24 07:18:47;;;;;;;;;;;28.70;46.80;;;;;;5054037;28;19908;-76
2022/06/24 07:21:13;;;;;;;;;;;28.70;46.80;;;;;;5036360;28;19909;-76
2022/06/24 07:23:39;;;;;;;;;;;28.70;46.70;;;;;;5036198;28;19919;-76
2022/06/24 07:26:05;;;;;;;;;;;28.70;46.70;;;;;;5054029;28;19909;-77
2022/06/24 07:28:30;;;;;;;;;;;28.70;46.50;;;;;;5019649;28;19974;-76
2022/06/24 07:30:56;;;;;;;;;;;28.80;46.60;;;;;;5019616;28;20436;-77
2022/06/24 07:33:23;;;;;;;;;;;28.90;46.50;;;;;;5019575;28;19939;-77
2022/06/24 07:35:49;;;;;;;;;;;28.80;46.50;;;;;;5036319;28;19909;-76
2022/06/24 07:38:14;;;;;;;;;;;28.80;46.60;;;;;;5035868;28;20483;-76
2022/06/24 07:40:40;;;;;;;;;;;28.80;46.30;;;;;;5053754;28;19909;-76
2022/06/24 07:43:05;;;;;;;;;;;28.90;46.50;;;;;;5035733;28;19915;-76
2022/06/24 07:45:31;;;;;;;;;;;28.90;46.30;;;;;;5035889;28;19909;-77
2022/06/24 07:47:56;;;;;;;;;;;28.90;46.30;;;;;;5053756;28;20347;-77
2022/06/24 07:50:22;;;;;;;;;;;28.90;46.30;;;;;;5053582;28;19958;-77
2022/06/24 07:52:47;;;;;;;;;;;28.90;46.20;;;;;;5019414;28;19909;-76
2022/06/24 07:57:57;;;;;;;;;;;29.00;45.90;;;;;;5054068;28;19991;-76
2022/06/24 08:00:22;;;;;;;;;;;29.00;45.90;;;;;;5019237;28;20292;-77
2022/06/24 08:02:48;;;;;;;;;;;29.00;45.80;;;;;;5053460;28;19909;-77
2022/06/24 08:05:13;;;;;;;;;;;29.10;45.80;;;;;;5035437;28;19936;-77
2022/06/24 08:07:39;;;;;;;;;;;29.10;45.80;;;;;;5019246;28;20008;-77
2022/06/24 08:10:05;;;;;;;;;;;29.10;45.90;;;;;;5035934;28;19916;-76
2022/06/24 08:12:30;;;;;;;;;;;29.10;45.90;;;;;;5035792;28;19952;-77
2022/06/24 08:14:55;;;;;;;;;;;29.10;45.80;;;;;;5035516;28;19996;-78
2022/06/24 08:17:21;;;;;;;;;;;29.10;45.90;;;;;;5035466;28;19913;-76
2022/06/24 08:19:47;;;;;;;;;;;29.10;45.80;;;;;;5035652;28;19908;-76
2022/06/24 08:22:12;;;;;;;;;;;29.10;45.90;;;;;;5018882;28;20376;-77
2022/06/24 08:24:38;;;;;;;;;;;29.00;45.90;;;;;;5018884;28;19913;-76
2022/06/24 08:27:03;;;;;;;;;;;29.10;46.00;;;;;;5053306;28;19912;-76
2022/06/24 08:29:29;;;;;;;;;;;29.10;46.10;;;;;;5035517;28;19912;-76
2022/06/24 08:31:54;;;;;;;;;;;29.10;46.10;;;;;;5018614;28;19909;-76
2022/06/24 08:34:23;;;;;;;;;;;29.00;45.90;;;;;;5018781;28;19960;-76
2022/06/24 08:36:48;;;;;;;;;;;29.10;46.00;;;;;;5019290;28;19908;-76
2022/06/24 08:39:14;;;;;;;;;;;29.10;46.00;;;;;;5018650;28;20079;-77
2022/06/24 08:41:41;;;;;;;;;;;29.10;46.10;;;;;;5035296;28;19920;-76
2022/06/24 08:44:07;;;;;;;;;;;29.10;46.20;;;;;;5019020;28;19919;-76
2022/06/24 08:46:32;;;;;;;;;;;29.10;46.00;;;;;;5053412;28;20353;-76
2022/06/24 08:48:58;;;;;;;;;;;29.20;46.20;;;;;;5035471;28;20300;-76
2022/06/24 08:51:24;;;;;;;;;;;29.10;46.00;;;;;;5018938;28;19916;-76
2022/06/24 08:53:50;;;;;;;;;;;29.20;46.10;;;;;;5019230;28;19916;-77
2022/06/24 08:56:15;;;;;;;;;;;29.20;46.10;;;;;;5035291;28;19909;-76
2022/06/24 08:58:41;;;;;;;;;;;29.20;46.20;;;;;;5035053;28;19913;-77
2022/06/24 09:01:06;;;;;;;;;;;29.10;46.00;;;;;;5018679;28;19915;-76
2022/06/24 09:03:32;;;;;;;;;;;29.10;45.80;;;;;;5035100;28;19927;-76
2022/06/24 09:05:57;;;;;;;;;;;29.10;45.80;;;;;;5036377;28;19919;-76
2022/06/24 09:08:23;;;;;;;;;;;29.20;45.80;;;;;;5038502;28;20007;-76
2022/06/24 09:11:07;;;;;;;;;;;29.20;45.80;;;;;;5038894;28;19947;-76
2022/06/24 09:13:42;;;;;;;;;;;29.30;45.90;;;;;;5042052;28;19987;-76
2022/06/24 09:16:08;;;;;;;;;;;29.30;45.90;;;;;;5057141;28;19935;-77
2022/06/24 09:18:33;;;;;;;;;;;29.30;45.90;;;;;;5022229;28;20368;-76
2022/06/24 09:20:59;;;;;;;;;;;29.30;45.90;;;;;;5038702;28;19909;-76
2022/06/24 09:23:24;;;;;;;;;;;29.30;45.90;;;;;;5056542;28;19908;-77
2022/06/24 09:25:50;;;;;;;;;;;29.30;45.70;;;;;;5021842;28;19917;-76
2022/06/24 09:28:22;;;;;;;;;;;29.30;45.60;;;;;;5056430;28;20334;-77
2022/06/24 09:30:47;;;;;;;;;;;29.30;45.60;;;;;;5038578;28;19913;-76
2022/06/24 09:33:19;;;;;;;;;;;29.30;45.70;;;;;;5056287;28;19998;-76
2022/06/24 09:35:44;;;;;;;;;;;29.40;45.70;;;;;;5038682;28;19909;-76
2022/06/24 09:38:10;;;;;;;;;;;29.30;45.50;;;;;;5038309;28;19909;-76
2022/06/24 09:40:35;;;;;;;;;;;29.30;45.40;;;;;;5038329;28;19948;-77
2022/06/24 09:43:05;;;;;;;;;;;29.40;45.40;;;;;;5021687;28;19958;-76
2022/06/24 09:45:44;;;;;;;;;;;29.40;45.40;;;;;;5038350;28;19924;-76
2022/06/24 09:48:10;;;;;;;;;;;29.40;45.40;;;;;;5038355;28;19909;-76
2022/06/24 09:50:36;;;;;;;;;;;29.50;45.50;;;;;;5038042;28;19913;-77
2022/06/24 09:53:01;;;;;;;;;;;29.50;45.40;;;;;;5055546;28;19909;-76
2022/06/24 09:55:27;;;;;;;;;;;29.50;45.40;;;;;;5021047;28;19909;-76
2022/06/24 09:57:52;;;;;;;;;;;29.50;45.50;;;;;;5038121;28;19962;-77
2022/06/24 10:03:02;;;;;;;;;;;29.50;45.50;;;;;;5040403;28;19916;-76
2022/06/24 10:05:27;;;;;;;;;;;29.60;45.50;;;;;;5037434;28;19920;-76
2022/06/24 10:07:53;;;;;;;;;;;29.60;45.60;;;;;;5020519;28;19957;-76
2022/06/24 10:10:18;;;;;;;;;;;29.60;46.40;;;;;;5037563;28;20292;-76
2022/06/24 10:12:46;;;;;;;;;;;29.60;45.80;;;;;;5037618;28;20026;-77
2022/06/24 10:15:15;;;;;;;;;;;29.50;45.50;;;;;;5037727;28;19909;-76
2022/06/24 10:17:42;;;;;;;;;;;29.50;45.40;;;;;;5037223;28;19917;-75
2022/06/24 10:20:08;;;;;;;;;;;29.50;45.60;;;;;;5037325;28;19916;-76
2022/06/24 10:22:44;;;;;;;;;;;29.50;45.60;;;;;;5037597;28;19908;-76
2022/06/24 10:25:10;;;;;;;;;;;29.60;45.80;;;;;;5037210;28;20319;-76
2022/06/24 10:27:54;;;;;;;;;;;29.60;45.80;;;;;;5020849;28;19909;-76
2022/06/24 10:30:35;;;;;;;;;;;29.60;45.80;;;;;;5054945;28;19940;-76
2022/06/24 10:33:13;;;;;;;;;;;29.60;45.70;;;;;;5020973;28;19909;-76
2022/06/24 10:35:58;;;;;;;;;;;29.60;45.60;;;;;;5037312;28;20330;-75
2022/06/24 10:38:24;;;;;;;;;;;29.60;45.60;;;;;;5036889;28;19954;-75
2022/06/24 10:40:49;;;;;;;;;;;29.60;45.70;;;;;;5020472;28;20015;-76
2022/06/24 10:43:31;;;;;;;;;;;29.60;45.70;;;;;;5036633;28;20010;-76
2022/06/24 10:46:12;;;;;;;;;;;29.70;45.80;;;;;;5020457;28;20360;-76
2022/06/24 10:48:43;;;;;;;;;;;29.70;45.50;;;;;;5054619;28;19908;-76
2022/06/24 10:51:15;;;;;;;;;;;29.70;45.50;;;;;;5054545;28;19908;-76
2022/06/24 10:54:16;;;;;;;;;;;29.70;45.40;;;;;;5020201;28;19913;-75
2022/06/24 10:56:42;;;;;;;;;;;29.70;45.40;;;;;;4973795;28;19914;-77
2022/06/24 10:59:08;;;;;;;;;;;29.70;45.40;;;;;;5037921;28;19915;-75
2022/06/24 11:01:33;;;;;;;;;;;29.70;45.40;;;;;;5036555;28;19908;-76
2022/06/24 11:03:59;;;;;;;;;;;29.70;45.30;;;;;;5036446;28;19960;-76
2022/06/24 11:06:25;;;;;;;;;;;29.80;45.40;;;;;;5020093;28;19936;-75
2022/06/24 11:08:50;;;;;;;;;;;29.70;45.30;;;;;;5054018;28;20025;-76
2022/06/24 11:11:28;;;;;;;;;;;29.80;45.40;;;;;;5019897;28;19909;-76
2022/06/24 11:13:53;;;;;;;;;;;29.80;45.40;;;;;;5036524;28;19909;-77
2022/06/24 11:16:19;;;;;;;;;;;29.80;45.40;;;;;;5054190;28;19915;-77
2022/06/24 11:18:48;;;;;;;;;;;29.90;45.50;;;;;;5036277;28;20280;-77
2022/06/24 11:21:17;;;;;;;;;;;29.80;45.50;;;;;;5036326;28;19908;-76
2022/06/24 11:23:42;;;;;;;;;;;29.80;45.40;;;;;;5036701;28;20392;-76
2022/06/24 11:26:15;;;;;;;;;;;29.80;45.60;;;;;;5019599;28;19935;-77
2022/06/24 11:28:41;;;;;;;;;;;29.80;45.40;;;;;;5019191;28;19919;-76
2022/06/24 11:31:19;;;;;;;;;;;29.90;45.60;;;;;;5053950;28;19908;-77
2022/06/24 11:33:48;;;;;;;;;;;29.90;45.60;;;;;;5020013;28;19916;-75
2022/06/24 11:36:14;;;;;;;;;;;29.90;45.40;;;;;;5036313;28;19916;-76
2022/06/24 11:38:49;;;;;;;;;;;29.90;45.30;;;;;;5019727;28;19966;-76
2022/06/24 11:41:35;;;;;;;;;;;29.90;45.00;;;;;;5035846;28;20246;-76
2022/06/24 11:44:01;;;;;;;;;;;30.00;45.00;;;;;;5053079;28;20323;-77
2022/06/24 11:46:26;;;;;;;;;;;30.00;45.10;;;;;;5053802;28;19909;-77
2022/06/24 11:49:08;;;;;;;;;;;30.00;44.80;;;;;;5035795;28;19909;-77
2022/06/24 11:51:33;;;;;;;;;;;30.00;44.50;;;;;;5019574;28;19957;-75
2022/06/24 11:54:00;;;;;;;;;;;30.00;44.40;;;;;;5035881;28;20342;-76
2022/06/24 11:56:27;;;;;;;;;;;30.10;44.50;;;;;;5035948;28;19919;-77
2022/06/24 11:58:53;;;;;;;;;;;30.20;44.70;;;;;;5036005;28;20372;-76
2022/06/24 12:01:18;;;;;;;;;;;30.20;44.50;;;;;;5053455;28;19915;-75
2022/06/24 12:03:45;;;;;;;;;;;30.10;44.60;;;;;;5018810;28;19920;-76
2022/06/24 12:06:10;;;;;;;;;;;30.20;44.60;;;;;;5053545;28;19913;-77
2022/06/24 12:08:36;;;;;;;;;;;30.10;44.50;;;;;;5018688;28;19916;-76
2022/06/24 12:11:02;;;;;;;;;;;30.10;44.40;;;;;;5035650;28;20284;-77
2022/06/24 12:13:32;;;;;;;;;;;30.20;44.30;;;;;;5018989;28;19932;-75
2022/06/24 12:15:57;;;;;;;;;;;30.10;44.10;;;;;;5036099;28;19913;-76
2022/06/24 12:18:23;;;;;;;;;;;30.10;44.10;;;;;;5035711;28;20000;-77
2022/06/24 12:20:55;;;;;;;;;;;30.20;44.30;;;;;;5019331;28;19909;-77
2022/06/24 12:23:21;;;;;;;;;;;30.10;44.40;;;;;;5035609;28;19952;-76
2022/06/24 12:25:47;;;;;;;;;;;30.20;44.60;;;;;;5018978;28;20018;-76
2022/06/24 12:28:13;;;;;;;;;;;30.10;44.70;;;;;;5035759;28;20284;-77
2022/06/24 12:30:38;;;;;;;;;;;30.10;44.80;;;;;;5036189;28;19909;-76
2022/06/24 12:33:05;;;;;;;;;;;30.20;44.90;;;;;;5035723;28;19909;-76
2022/06/24 12:35:32;;;;;;;;;;;30.10;44.90;;;;;;5035608;28;20233;-76
2022/06/24 12:37:57;;;;;;;;;;;30.00;45.00;;;;;;5035565;28;19915;-76
2022/06/24 12:40:23;;;;;;;;;;;30.00;45.30;;;;;;5037006;28;19909;-76
2022/06/24 12:43:03;;;;;;;;;;;30.00;45.50;;;;;;5057084;28;19944;-77
2022/06/24 12:45:33;;;;;;;;;;;30.00;45.60;;;;;;5057139;28;19920;-77
2022/06/24 12:50:43;;;;;;;;;;;29.90;46.00;;;;;;5056961;28;20383;-76
2022/06/24 12:53:09;;;;;;;;;;;29.90;46.00;;;;;;5039109;28;19913;-76
2022/06/24 12:55:35;;;;;;;;;;;29.90;46.10;;;;;;5038757;28;19962;-77
2022/06/24 12:58:00;;;;;;;;;;;30.00;46.10;;;;;;5038883;28;20343;-74
2022/06/24 13:00:26;;;;;;;;;;;29.90;46.20;;;;;;5022253;28;19944;-76
2022/06/24 13:02:52;;;;;;;;;;;29.90;46.20;;;;;;5038868;28;19958;-76
2022/06/24 13:05:21;;;;;;;;;;;29.90;46.30;;;;;;5038527;28;19921;-77
2022/06/24 13:07:47;;;;;;;;;;;29.90;46.30;;;;;;5056584;28;19909;-76
2022/06/24 13:10:12;;;;;;;;;;;29.90;46.50;;;;;;5022212;28;20283;-76
2022/06/24 13:12:38;;;;;;;;;;;29.90;46.60;;;;;;5038994;28;20438;-76
2022/06/24 13:15:04;;;;;;;;;;;29.80;46.60;;;;;;5056438;28;19908;-77
2022/06/24 13:17:30;;;;;;;;;;;29.90;46.80;;;;;;5022015;28;20205;-76
2022/06/24 13:19:55;;;;;;;;;;;29.90;46.80;;;;;;5038649;28;19916;-76
2022/06/24 13:22:21;;;;;;;;;;;29.90;46.90;;;;;;5021991;28;20359;-76
2022/06/24 13:24:46;;;;;;;;;;;29.80;47.00;;;;;;5056154;28;20011;-76
2022/06/24 13:27:12;;;;;;;;;;;29.80;47.20;;;;;;5021949;28;19909;-77
2022/06/24 13:29:37;;;;;;;;;;;29.80;47.20;;;;;;5038276;28;19951;-76
2022/06/24 13:32:03;;;;;;;;;;;29.70;47.30;;;;;;5056055;28;19948;-77
2022/06/24 13:34:29;;;;;;;;;;;29.70;47.40;;;;;;5021696;28;19915;-76
2022/06/24 13:36:54;;;;;;;;;;;29.70;47.50;;;;;;5038320;28;20300;-77
2022/06/24 13:39:20;;;;;;;;;;;29.70;47.70;;;;;;5021108;28;19913;-76
2022/06/24 13:41:45;;;;;;;;;;;29.70;47.70;;;;;;5037994;28;19909;-78
2022/06/24 13:44:11;;;;;;;;;;;29.70;47.70;;;;;;5055865;28;19934;-76
2022/06/24 13:46:36;;;;;;;;;;;29.70;47.70;;;;;;5038262;28;19908;-77
2022/06/24 13:49:02;;;;;;;;;;;29.80;47.80;;;;;;5037918;28;19908;-75
2022/06/24 13:51:27;;;;;;;;;;;29.80;47.70;;;;;;5038030;28;19991;-76
2022/06/24 13:53:53;;;;;;;;;;;29.80;47.70;;;;;;5021103;28;19909;-76
2022/06/24 13:56:19;;;;;;;;;;;29.80;47.60;;;;;;5021304;28;19916;-76
2022/06/24 13:58:45;;;;;;;;;;;29.90;47.80;;;;;;5037827;28;19909;-76
2022/06/24 14:01:11;;;;;;;;;;;29.80;47.90;;;;;;5037813;28;19913;-76
2022/06/24 14:03:37;;;;;;;;;;;29.80;47.80;;;;;;5021127;28;19917;-76
2022/06/24 14:06:02;;;;;;;;;;;29.90;47.90;;;;;;5037692;28;20283;-76
2022/06/24 14:08:28;;;;;;;;;;;29.90;47.90;;;;;;5055119;28;19909;-76
2022/06/24 14:10:53;;;;;;;;;;;30.00;47.90;;;;;;5021115;28;19909;-76
2022/06/24 14:13:19;;;;;;;;;;;30.00;47.80;;;;;;5020806;28;19915;-76
2022/06/24 14:15:44;;;;;;;;;;;30.10;47.70;;;;;;5037517;28;19913;-76
2022/06/24 14:18:12;;;;;;;;;;;30.10;47.70;;;;;;5037441;28;20308;-76
2022/06/24 14:20:37;;;;;;;;;;;30.10;47.70;;;;;;5037990;28;19909;-76
2022/06/24 14:25:47;;;;;;;;;;;30.10;48.00;;;;;;5040320;28;20280;-77
2022/06/24 14:28:12;;;;;;;;;;;30.00;47.80;;;;;;5037388;28;19913;-76